Date,TemperatureHighF,TemperatureAvgF,TemperatureLowF,DewpointHighF,DewpointAvgF,DewpointLowF,HumidityHigh,HumidityAvg,HumidityLow,PressureMaxIn,PressureMinIn,WindSpeedMaxMPH,WindSpeedAvgMPH,GustSpeedMaxMPH,PrecipitationSumIn
2012-1-1,48.6,40.3,33.7,42.9,36.7,28.2,97,87,70,30.00,29.49,29,14,33,0.11
2012-1-2,33.3,27.0,19.8,27.6,22.8,12.2,95,84,72,29.84,29.59,26,12,29,0.00
2012-1-3,19.4,9.2,-1.8,15.9,4.7,-5.2,89,82,69,30.25,29.84,11,7,12,0.00
2012-1-4,26.6,15.6,0.0,21.8,9.2,-3.7,86,76,56,30.24,29.87,18,11,19,0.00
2012-1-5,32.7,30.2,26.8,27.6,25.6,22.3,87,83,76,29.89,29.73,14,8,15,0.00
2012-1-6,50.5,42.8,31.4,36.0,32.3,25.5,80,67,54,29.71,29.57,20,14,21,0.00
2012-1-7,46.9,41.1,35.5,37.1,34.1,30.0,91,76,67,29.98,29.59,22,11,23,0.01
2012-1-8,35.2,29.5,25.4,30.3,23.1,19.4,89,77,66,30.30,29.99,9,6,11,0.00
2012-1-9,40.6,33.1,25.5,24.3,22.5,20.0,83,66,44,30.25,29.83,14,9,14,0.00
2012-1-10,39.3,36.6,33.5,31.9,29.4,24.6,84,75,59,29.97,29.76,20,9,24,0.00
2012-1-11,45.6,37.5,30.5,36.3,31.3,27.1,94,79,60,29.92,29.60,12,6,12,0.19
2012-1-12,43.4,39.7,35.9,42.2,38.7,34.9,98,96,92,29.58,29.26,9,5,12,0.33
2012-1-13,42.3,25.7,17.4,40.6,23.2,15.0,94,90,85,29.73,29.19,26,16,27,0.00
2012-1-14,22.1,16.6,6.2,19.6,13.3,3.2,90,86,81,30.19,29.73,9,5,18,0.00
2012-1-15,18.0,10.1,4.8,9.2,4.7,0.8,87,78,65,30.55,30.21,8,3,9,0.00
2012-1-16,37.3,26.0,8.2,34.6,18.8,3.8,94,75,55,30.50,29.89,21,14,21,0.06
2012-1-17,51.3,41.1,31.0,46.9,39.2,27.6,97,93,81,29.87,29.28,36,15,43,0.32
2012-1-18,30.4,21.7,14.5,25.3,15.7,9.7,88,78,65,30.15,29.63,19,9,25,0.00
2012-1-19,26.1,19.5,12.8,23.9,15.0,9.5,93,83,66,30.09,29.74,19,11,23,0.00
2012-1-20,14.7,12.7,8.9,8.9,7.3,4.0,82,79,76,30.19,29.99,7,5,9,0.00
2012-1-23,44.4,42.6,39.5,41.8,40.5,37.9,94,92,89,29.70,29.62,15,11,15,0.06
2012-1-24,38.2,33.5,30.4,35.8,29.9,25.5,91,86,81,30.19,29.71,19,13,19,0.00
2012-1-25,30.3,29.1,28.2,27.0,25.5,23.6,94,86,81,30.33,30.19,9,5,13,0.00
2012-1-26,39.1,31.4,27.2,38.3,30.6,26.2,98,97,95,30.18,29.56,13,2,13,0.26
2012-1-27,46.8,38.2,32.2,45.7,36.4,27.3,97,93,82,29.88,29.26,21,12,23,0.42
2012-1-28,35.8,31.8,27.0,33.3,28.1,23.4,94,86,76,29.95,29.69,26,13,30,0.01
2012-1-29,35.6,29.4,25.2,28.6,24.5,21.0,94,82,62,30.00,29.85,20,13,23,0.00
2012-1-30,31.6,25.8,23.0,24.2,20.5,16.3,92,80,64,30.24,30.00,14,7,17,0.00
2012-1-31,52.4,46.9,33.0,38.9,35.1,23.6,71,64,59,29.98,29.80,18,12,20,0.00
2012-2-1,51.8,43.8,35.0,45.9,39.3,30.9,93,84,62,30.04,29.74,23,12,29,0.24
2012-2-2,35.0,31.6,28.5,31.2,28.0,23.9,91,87,79,30.34,30.01,9,5,10,0.00
2012-2-3,35.2,32.1,27.8,30.5,28.0,23.3,89,84,79,30.46,30.32,11,6,13,0.00
2012-2-4,36.5,32.0,27.5,30.7,28.1,24.7,92,86,70,30.32,30.13,6,3,9,0.00
2012-2-5,33.3,30.2,27.8,28.0,25.5,23.4,90,83,73,30.17,30.10,10,4,12,0.00
2012-2-6,45.5,38.0,31.1,31.8,28.0,23.3,88,69,42,30.11,29.91,22,15,24,0.00
2012-2-22,36.4,34.8,33.5,34.6,33.5,32.5,97,95,93,29.45,29.38,8,2,9,0.10
2012-2-23,37.5,34.3,31.1,32.9,31.2,29.1,97,89,79,29.68,29.37,12,5,12,0.16
2012-2-24,44.0,35.9,30.9,41.3,33.7,29.3,97,92,68,29.63,29.19,31,11,36,0.22
2012-2-25,30.8,27.8,23.5,28.8,23.5,16.3,95,84,60,30.16,29.39,24,15,31,0.00
2012-2-26,31.7,26.4,20.8,21.6,19.0,15.8,83,74,64,30.41,30.17,8,4,10,0.00
2012-2-27,46.5,36.5,29.7,29.9,25.1,20.9,79,64,48,30.24,29.98,27,15,35,0.00
2012-2-28,36.0,30.8,28.5,27.0,23.8,20.6,87,75,59,30.44,30.27,15,6,20,0.00
2012-2-29,37.9,32.8,28.8,37.1,30.7,25.1,97,92,82,30.28,29.53,7,4,9,0.06
2012-3-1,41.2,37.4,34.6,39.7,35.0,31.7,96,91,84,29.86,29.48,19,11,26,0.09
2012-3-2,47.8,40.5,34.9,40.5,35.3,32.9,94,82,65,29.90,29.34,19,9,19,0.12
2012-3-3,49.1,38.7,30.4,45.7,31.0,22.1,91,74,59,29.60,29.22,30,20,43,0.01
2012-3-4,31.2,26.7,20.0,27.0,22.6,16.3,92,84,72,29.80,29.58,15,9,18,0.00
2012-3-5,24.2,19.2,13.1,16.8,12.3,9.3,88,75,55,30.40,29.80,12,6,14,0.00
2012-3-6,39.3,30.0,18.9,23.1,19.8,14.5,89,68,50,30.52,30.26,17,9,20,0.00
2012-3-7,63.8,52.9,39.6,39.6,32.1,23.9,53,45,37,30.25,29.98,17,14,26,0.00
2012-3-8,57.8,49.8,32.9,51.8,42.3,28.9,94,77,48,29.98,29.66,19,14,25,0.29
2012-3-9,34.2,29.3,22.1,29.3,23.3,13.7,92,78,63,30.33,29.95,23,11,26,0.00
2012-3-10,36.1,27.3,18.7,21.9,16.9,12.0,87,66,45,30.55,30.28,17,8,21,0.00
2012-3-11,61.6,47.7,34.5,33.4,27.8,22.3,63,47,30,30.32,30.21,16,10,20,0.00
2012-3-12,66.1,53.9,44.7,50.1,36.7,29.4,92,55,31,30.21,29.90,14,9,17,0.03
2012-3-13,62.1,56.7,48.8,54.2,49.4,41.2,92,77,57,29.95,29.78,22,13,28,0.16
2012-3-14,63.4,51.3,37.7,40.8,32.5,25.9,86,54,26,30.12,29.96,8,4,10,0.00
2012-3-15,69.6,59.6,49.2,52.6,45.8,26.3,72,61,35,30.08,29.95,24,8,30,0.00
2012-3-16,64.7,59.7,55.3,57.0,53.9,47.6,94,82,60,30.12,29.92,15,7,18,0.05
2012-3-17,74.9,59.6,51.2,58.1,53.7,49.8,97,83,48,30.19,30.09,9,4,11,0.00
2012-3-18,73.9,62.5,55.7,57.3,53.2,46.8,89,72,53,30.12,30.00,13,8,17,0.31
2012-3-19,73.5,62.7,56.3,59.7,53.4,-99.9,93,80,53,30.09,30.01,10,5,10,0.06
2012-3-20,73.5,64.8,56.0,59.6,56.7,53.7,92,76,59,30.16,30.06,10,4,11,0.00
2012-3-21,78.5,65.7,57.6,59.7,55.2,52.7,89,71,41,30.19,30.05,10,6,13,0.00
2012-3-22,75.3,65.9,55.3,59.1,55.7,52.2,90,71,54,30.12,30.00,13,6,15,0.00
2012-3-23,66.6,59.3,53.2,57.3,50.8,41.5,94,75,55,30.07,29.95,9,6,9,0.00
2012-3-24,61.1,54.0,50.0,55.7,47.6,40.5,95,80,63,29.95,29.77,10,4,12,0.10
2012-3-25,54.1,49.6,43.8,50.6,47.5,40.7,97,93,74,29.79,29.72,12,6,12,0.11
2012-3-26,47.5,35.2,28.6,38.6,23.7,14.0,86,64,42,30.27,29.79,16,11,22,0.00
2012-3-27,46.9,34.4,23.4,20.7,14.6,10.9,68,46,25,30.36,29.91,14,4,14,0.00
2012-3-28,66.3,53.9,42.7,51.8,38.3,17.7,91,58,30,29.89,29.48,27,14,33,0.13
2012-3-29,42.0,36.8,34.0,39.3,33.0,27.4,94,86,76,30.08,29.67,13,8,15,0.08
2012-3-30,46.7,36.8,31.3,32.1,27.8,23.9,96,71,51,30.08,29.82,9,5,11,0.01
2012-3-31,36.5,34.6,32.7,36.0,33.8,31.9,98,97,89,29.92,29.78,8,5,9,0.11
2012-4-1,40.5,36.2,32.0,39.3,34.8,30.7,98,95,87,29.89,29.64,8,5,9,0.47
2012-4-2,49.4,40.7,33.7,36.9,29.2,22.1,97,68,35,29.97,29.73,10,7,13,0.00
2012-4-3,55.0,44.1,35.4,31.3,24.8,18.7,61,48,25,30.00,29.76,10,4,10,0.00
2012-4-4,52.2,45.4,38.7,37.8,31.9,25.6,73,59,48,29.78,29.66,15,8,19,0.00
2012-4-5,42.5,37.1,33.2,29.5,28.1,26.0,82,70,58,30.00,29.78,10,6,11,0.00
2012-4-6,48.2,39.5,31.6,28.9,25.5,19.7,82,60,34,30.12,30.00,12,7,19,0.00
2012-4-7,53.7,43.2,34.4,27.0,23.9,19.6,70,49,27,30.20,30.07,12,8,18,0.00
2012-4-8,58.6,47.0,38.4,41.4,27.9,19.5,76,49,25,30.04,29.75,19,9,20,0.00
2012-4-9,50.4,43.6,37.1,32.6,27.9,25.5,73,55,39,29.77,29.64,23,14,30,0.00
2012-4-10,45.5,40.8,36.4,33.5,30.2,27.7,84,66,53,29.79,29.61,19,10,26,0.00
2012-4-11,46.5,38.8,34.1,37.4,33.9,30.4,93,83,62,30.04,29.78,13,8,18,0.03
2012-4-12,39.9,39.5,39.2,35.8,35.0,33.9,87,84,81,30.06,30.04,9,6,11,0.00
2012-4-16,82.7,69.2,55.3,60.0,54.5,44.9,76,61,40,29.89,29.65,26,14,31,0.01
2012-4-17,53.8,48.1,39.6,43.2,36.4,31.1,82,65,45,30.27,29.91,24,11,27,0.00
2012-4-18,56.4,42.9,32.4,36.0,31.4,28.2,86,66,39,30.30,30.02,6,3,9,0.00
2012-4-19,68.1,56.5,41.7,50.4,42.2,33.4,74,60,46,30.02,29.86,18,9,18,0.00
2012-4-20,76.0,65.8,55.8,49.6,45.7,39.4,75,51,27,29.86,29.57,16,9,20,0.00
2012-4-21,63.9,45.6,37.1,49.7,42.3,35.8,96,89,57,29.89,29.59,9,5,11,0.55
2012-4-22,37.9,37.0,36.3,36.4,35.8,35.1,97,95,92,29.91,29.73,14,8,14,0.13
2012-4-23,36.5,34.1,33.0,35.2,33.1,32.1,97,96,95,29.71,29.25,14,9,19,0.44
2012-4-24,39.3,35.6,32.9,34.9,33.3,32.1,97,92,79,29.59,29.22,18,9,24,0.29
2012-4-25,52.0,44.2,36.7,34.6,31.3,29.4,88,62,46,29.84,29.59,12,6,12,0.00
2012-4-26,57.1,46.4,38.0,45.8,36.7,30.1,91,70,49,29.81,29.51,12,8,15,0.13
2012-4-27,43.4,36.9,32.2,36.1,28.3,23.0,89,71,54,30.18,29.76,15,10,20,0.00
2012-4-28,50.7,39.4,29.8,30.1,24.7,17.6,83,58,36,30.27,30.13,7,4,9,0.00
2012-4-29,54.6,44.4,34.1,28.1,20.1,13.6,53,39,24,30.25,30.16,12,6,13,0.00
2012-4-30,60.0,47.9,37.1,35.6,26.4,22.8,60,44,26,30.24,29.95,7,4,10,0.00
2012-5-1,56.1,53.7,50.7,52.9,51.3,48.9,95,92,87,30.00,29.80,12,5,12,0.15
2012-5-2,74.2,62.1,49.9,63.7,57.0,48.6,97,84,65,29.98,29.81,10,3,10,0.02
2012-5-3,82.4,72.8,62.3,67.5,63.7,60.8,96,75,53,29.96,29.76,11,5,14,0.09
2012-5-4,71.6,66.0,61.5,63.8,61.0,58.0,95,84,71,29.86,29.78,15,7,18,0.07
2012-5-5,61.6,52.9,47.7,57.0,47.1,43.9,89,81,67,30.00,29.87,10,7,12,0.00
2012-5-12,74.0,66.1,50.1,45.7,43.0,40.1,69,44,33,30.15,30.07,13,8,15,0.00
2012-5-13,72.2,61.7,54.5,55.5,50.8,44.8,79,68,49,30.11,30.01,8,4,9,0.00
2012-5-14,68.8,62.5,57.2,57.6,55.0,52.9,92,77,59,30.01,29.90,7,3,9,0.00
2012-5-15,76.2,65.2,57.0,57.8,53.5,43.7,93,69,43,29.92,29.79,7,3,9,0.00
2012-5-16,71.5,59.9,47.9,54.7,47.8,37.8,79,65,48,29.99,29.73,14,7,16,0.00
2012-5-17,62.3,52.3,41.9,38.1,35.7,32.8,78,55,35,30.13,30.00,7,4,12,0.00
2012-5-18,73.5,60.4,47.0,46.2,40.4,34.9,67,50,31,30.15,30.03,7,4,9,0.00
2012-5-19,83.5,70.3,55.6,55.7,48.2,44.4,70,48,26,30.09,30.02,11,4,11,0.00
2012-5-20,85.0,74.5,63.7,58.9,52.6,49.0,67,48,30,30.11,30.00,8,5,10,0.00
2012-5-21,76.5,68.2,61.5,64.4,57.8,48.4,93,70,55,30.00,29.83,15,6,17,0.09
2012-5-22,70.9,65.2,61.7,64.8,62.1,60.0,95,90,77,29.83,29.74,7,3,9,0.30
2012-5-23,71.8,64.4,59.4,62.7,60.3,58.3,97,87,68,29.90,29.80,5,2,9,0.00
2012-5-24,77.7,69.8,61.1,63.4,60.6,58.5,93,74,53,29.97,29.86,12,8,18,0.00
2012-5-25,85.5,75.4,65.5,66.6,63.2,60.2,86,68,46,29.93,29.85,14,9,17,0.01
2012-5-26,80.7,72.2,66.2,65.7,54.5,49.3,81,55,38,30.08,29.94,8,3,10,0.00
2012-5-27,78.3,69.4,60.9,61.1,54.9,44.9,74,60,51,30.07,29.85,7,3,9,0.00
2012-5-28,88.0,76.8,64.7,69.9,65.1,58.8,87,68,51,29.89,29.68,11,7,12,0.00
2012-5-29,83.5,73.6,64.9,70.6,66.2,61.7,92,78,56,29.68,29.56,16,9,18,0.10
2012-5-30,72.1,66.7,59.2,63.2,53.1,42.9,95,65,38,29.73,29.63,16,8,18,0.00
2012-5-31,65.3,58.3,51.2,51.0,47.4,44.6,86,68,54,29.92,29.74,9,4,10,0.00
2012-6-1,61.6,55.8,51.4,59.4,52.3,45.4,96,88,73,29.91,29.51,9,4,13,0.63
2012-6-2,64.2,57.3,53.2,55.5,48.7,43.6,95,74,48,29.67,29.55,16,9,16,0.07
2012-6-3,61.1,55.6,51.8,55.6,51.6,47.8,93,87,70,29.65,29.58,16,7,18,0.52
2012-6-4,53.6,52.0,49.5,52.1,50.2,47.6,96,94,89,29.82,29.59,10,6,11,0.02
2012-6-5,63.6,55.6,50.6,52.1,50.0,47.6,97,83,56,29.92,29.81,8,4,12,0.02
2012-6-22,77.9,72.6,67.0,61.9,60.5,57.8,80,66,57,29.81,29.75,8,3,9,0.01
2012-6-23,76.5,68.4,59.6,60.8,55.8,51.5,85,65,50,29.94,29.82,8,4,13,0.00
2012-6-24,74.8,67.6,59.3,60.2,56.0,50.4,86,68,44,29.95,29.74,8,5,10,0.00
2012-6-25,67.2,62.6,57.3,60.0,52.7,46.5,92,72,53,29.81,29.71,11,7,15,0.04
2012-6-26,72.2,63.3,54.6,53.8,50.3,46.1,88,65,44,29.83,29.74,12,8,13,0.00
2012-6-27,74.2,66.6,59.3,57.9,53.6,48.4,81,64,43,29.82,29.74,9,6,13,0.00
2012-6-28,84.8,74.3,63.1,66.0,59.0,52.8,73,60,47,29.78,29.59,9,6,12,0.00
2012-6-29,83.4,77.3,72.0,67.0,62.1,54.4,79,61,38,29.64,29.56,15,7,15,0.00
2012-6-30,83.0,74.7,65.8,63.4,60.5,57.2,84,63,42,29.70,29.60,14,8,21,0.00
2012-7-1,80.7,74.4,67.0,62.8,58.7,51.5,84,60,39,29.82,29.68,12,6,15,0.00
2012-7-2,81.8,72.6,61.5,59.3,56.7,54.1,80,59,41,29.93,29.82,8,5,11,0.00
2012-7-3,84.3,72.4,62.9,68.9,62.6,56.6,85,72,51,29.88,29.68,13,6,13,0.09
2012-7-4,86.9,77.2,66.6,74.0,69.1,62.6,90,77,60,29.76,29.65,13,7,18,0.00
2012-7-5,85.7,77.0,68.4,73.0,65.9,62.2,87,70,49,29.81,29.71,8,3,9,0.00
2012-7-6,88.6,79.1,68.1,73.9,68.3,61.4,89,71,47,29.84,29.77,11,5,12,0.00
2012-7-7,82.4,74.3,69.0,71.7,68.0,64.8,91,81,66,29.82,29.74,14,4,14,0.09
2012-7-8,82.1,73.0,65.8,65.3,61.8,57.1,88,70,43,29.85,29.80,8,4,9,0.00
2012-7-9,78.0,70.1,61.7,60.3,56.0,51.6,90,63,40,29.93,29.85,7,3,9,0.00
2012-7-10,79.2,70.8,60.2,62.2,55.5,49.5,85,60,43,30.02,29.91,8,4,11,0.00
2012-7-11,82.6,73.8,64.1,57.8,51.9,47.8,68,47,34,30.09,30.00,6,3,9,0.00
2012-7-13,88.3,76.7,69.8,66.7,64.5,61.6,86,69,41,30.05,30.00,7,4,9,0.02
2012-7-14,84.4,74.9,64.9,68.3,63.8,59.4,86,70,48,30.08,29.95,9,5,12,0.02
2012-7-15,78.4,72.6,70.0,71.3,68.2,65.7,94,86,73,29.99,29.84,7,4,9,0.02
2012-7-16,86.1,76.2,68.3,69.3,65.6,59.6,96,73,41,29.86,29.75,8,5,11,0.01
2012-7-17,89.5,80.8,71.0,69.8,65.0,57.9,78,59,47,29.76,29.62,20,10,27,0.00
2012-7-18,81.1,75.3,69.7,69.7,66.9,60.7,90,76,63,29.85,29.66,6,3,10,0.00
2012-7-19,75.2,68.7,62.2,64.7,60.6,58.0,87,76,61,29.91,29.84,7,3,9,0.00
2012-7-20,64.2,61.7,58.9,62.6,57.6,54.4,96,86,82,29.96,29.89,6,3,9,0.00
2012-7-21,78.7,70.0,57.8,63.2,60.8,57.2,98,75,51,30.03,29.93,6,3,9,0.00
2012-7-22,82.8,72.4,62.0,68.5,64.0,60.0,93,76,59,30.02,29.93,10,6,12,0.00
2012-7-23,87.9,79.6,69.9,70.9,67.8,64.5,92,69,50,29.94,29.62,13,8,17,0.00
2012-7-24,80.2,73.1,63.4,70.9,64.1,55.0,94,75,52,29.80,29.63,11,5,16,0.00
2012-7-25,79.8,70.8,61.8,62.0,58.0,54.9,89,66,45,29.88,29.65,6,3,9,0.00
2012-7-26,76.3,71.0,65.9,69.9,67.1,60.6,94,87,78,29.66,29.50,14,7,18,0.00
2012-7-27,76.0,70.4,66.0,68.6,66.1,62.5,96,87,71,29.81,29.57,5,2,9,0.00
2012-7-28,67.5,65.2,63.1,64.0,62.8,62.2,97,92,84,29.86,29.81,6,1,9,0.00
2012-7-29,80.3,75.0,65.3,63.7,59.7,55.0,83,60,48,29.98,29.91,5,2,9,0.00
2012-7-30,82.1,73.0,63.1,65.2,59.6,55.1,84,64,44,29.97,29.87,10,6,11,0.00
2012-7-31,82.7,70.8,65.3,69.3,65.3,62.6,96,84,61,29.88,29.71,14,7,14,0.00
2012-8-1,79.7,71.7,64.5,67.1,64.8,62.7,95,80,60,29.79,29.74,10,5,11,0.00
2012-8-2,81.6,73.1,64.6,66.8,64.5,61.8,92,76,58,29.81,29.75,9,6,10,0.00
2012-8-3,86.5,76.8,66.5,70.8,66.2,61.4,86,71,53,29.94,29.80,8,3,9,0.00
2012-8-4,87.6,78.6,70.6,73.1,70.0,67.2,91,76,55,29.99,29.87,15,7,15,0.00
2012-8-5,82.4,75.0,68.9,73.4,69.9,66.5,95,84,73,29.90,29.77,14,9,17,0.00
2012-8-6,74.6,66.8,58.8,65.6,57.6,55.1,89,73,55,30.04,29.90,6,3,9,0.00
2012-8-7,80.7,69.1,56.1,63.5,56.4,51.7,88,67,42,29.94,29.84,7,4,9,0.00
2012-8-8,83.6,72.2,62.1,68.3,63.0,58.8,90,74,51,29.88,29.81,8,5,11,0.00
2012-8-9,77.9,71.0,65.3,68.4,63.9,59.5,94,79,57,29.83,29.71,8,4,9,0.00
2012-8-10,74.8,67.5,63.6,68.1,64.7,61.9,96,91,76,29.72,29.59,10,5,10,0.00
2012-8-11,69.7,65.5,61.4,64.4,60.3,58.1,96,84,70,29.81,29.63,11,8,21,0.00
2012-8-12,71.6,64.9,60.1,63.7,60.8,58.0,93,87,76,29.89,29.79,11,6,14,0.00
2012-8-13,76.8,69.4,62.8,65.5,61.8,59.9,94,78,58,29.94,29.85,7,3,9,0.00
2012-8-14,76.4,66.8,62.3,66.8,63.0,59.7,96,88,66,29.87,29.75,12,3,12,0.00
2012-8-15,77.9,68.7,61.1,64.7,62.1,56.8,98,81,49,29.86,29.79,8,2,9,0.00
2012-8-16,78.9,69.8,61.3,64.6,60.5,57.0,97,74,50,29.89,29.72,7,4,11,0.00
2012-8-17,74.0,67.7,61.9,63.9,59.8,54.6,91,77,53,29.81,29.64,11,6,13,0.00
2012-8-18,69.1,62.5,55.9,53.9,49.9,46.1,79,65,44,29.91,29.82,6,3,9,0.00
2012-8-19,74.4,64.6,54.7,54.6,50.7,47.7,80,62,42,29.92,29.79,8,4,9,0.00
2012-8-20,68.7,63.8,57.5,60.1,57.1,53.4,91,79,68,29.88,29.80,8,3,9,0.00
2012-8-21,75.4,64.8,56.2,58.1,50.3,47.0,86,61,40,30.02,29.89,7,3,9,0.00
2012-8-22,77.9,67.0,56.7,60.2,54.0,48.6,81,64,45,30.07,30.00,7,4,9,0.00
2012-8-23,81.1,69.5,56.8,61.3,54.5,51.1,83,61,42,30.09,30.02,6,4,9,0.00
2012-8-24,84.8,73.7,63.7,61.8,56.0,48.3,71,56,32,30.09,30.02,7,4,9,0.00
2012-8-25,84.1,74.1,65.2,64.4,60.1,57.1,81,63,40,30.14,30.06,9,6,9,0.00
2012-8-26,80.8,71.1,63.2,68.8,62.7,59.2,89,76,57,30.17,30.02,9,4,11,0.00
2012-8-27,79.3,70.1,65.7,67.8,65.1,62.0,96,85,62,30.02,29.82,11,6,15,0.01
2012-8-28,76.3,68.7,61.1,66.8,61.4,53.3,95,79,59,29.92,29.80,9,6,13,0.00
2012-8-29,72.5,63.3,54.9,54.4,50.9,45.8,89,66,42,30.00,29.92,6,4,9,0.00
2012-8-30,80.5,67.3,54.2,59.7,52.8,47.7,87,62,38,30.04,29.93,12,6,13,0.00
2012-8-31,88.4,75.9,61.9,69.1,58.4,51.0,79,56,38,29.94,29.80,21,12,21,0.00
2012-9-1,80.0,72.9,65.7,63.1,57.3,53.8,76,59,42,30.00,29.90,6,2,12,0.00
2012-9-2,81.4,72.1,65.6,57.8,54.0,51.2,69,54,38,29.98,29.90,6,4,10,0.00
2012-9-3,79.6,71.6,63.3,70.1,65.0,56.2,94,80,68,29.95,29.85,10,5,14,0.00
2012-9-4,80.5,71.8,66.3,71.7,68.6,64.5,96,90,73,29.88,29.66,10,5,16,0.00
2012-9-5,76.5,69.6,63.9,64.5,63.5,62.3,96,82,62,29.80,29.73,6,2,9,0.00
2012-9-6,81.6,72.7,65.5,69.0,65.6,63.1,92,79,59,29.80,29.73,9,4,10,0.00
2012-9-7,79.9,71.8,68.2,67.4,64.9,63.5,89,80,62,29.80,29.63,9,5,9,0.00
2012-9-8,73.1,64.9,55.7,66.6,60.6,53.6,93,86,75,29.70,29.36,16,8,16,0.00
2012-9-9,65.5,59.1,54.8,55.0,51.5,46.9,93,77,57,29.93,29.71,8,4,9,0.00
2012-9-10,66.1,58.3,51.5,49.9,45.5,40.5,87,64,40,30.10,29.93,10,5,13,0.00
2012-9-11,72.8,61.2,50.0,54.7,50.1,46.2,92,69,48,30.20,30.10,8,6,9,0.00
2012-9-12,78.0,65.5,52.6,57.5,52.6,48.3,87,65,39,30.24,30.14,11,7,14,0.00
2012-9-13,80.7,70.2,60.1,63.6,57.4,53.8,82,65,43,30.22,30.11,11,6,14,0.00
2012-9-14,79.6,65.5,54.0,64.5,58.4,51.8,94,79,48,30.12,29.94,12,7,14,0.00
2012-9-15,64.1,57.1,50.4,52.9,49.9,47.4,93,78,60,30.17,30.07,7,4,10,0.00
2012-9-16,68.7,59.3,48.9,55.0,51.0,47.2,94,75,54,30.09,29.96,9,4,9,0.00
2012-9-17,71.4,62.6,55.1,54.6,51.0,47.5,83,67,43,29.99,29.78,12,7,12,0.00
2012-9-18,69.2,60.5,49.9,63.3,57.1,46.2,97,89,76,29.77,29.39,13,6,16,0.00
2012-9-19,58.9,51.8,44.9,45.4,42.2,38.1,95,72,48,30.11,29.75,7,4,12,0.00
2012-9-20,67.9,56.8,44.5,51.4,45.4,39.7,83,67,48,30.10,29.88,15,9,19,0.00
2012-9-21,68.9,61.9,58.6,59.6,55.6,51.6,92,80,60,29.89,29.78,13,6,13,0.00
2012-9-22,66.4,56.5,47.3,59.4,52.3,43.9,95,86,77,29.87,29.52,17,6,22,0.00
2012-9-23,55.3,48.9,43.8,46.9,41.6,35.6,95,78,49,30.09,29.86,17,8,18,0.00
2012-9-24,55.9,48.4,41.5,43.2,41.1,39.1,92,77,56,30.12,29.95,14,8,14,0.00
2012-9-25,69.3,56.9,46.0,50.5,43.7,39.5,79,63,39,29.98,29.88,15,11,20,0.00
2012-9-26,60.4,58.4,57.4,57.7,55.0,51.1,93,89,75,29.90,29.86,12,8,13,0.00
2012-10-2,55.3,55.3,55.3,53.6,53.6,53.6,94,94,94,29.84,29.84,0,0,9,0.00
2012-10-16,49.1,45.7,41.0,39.4,37.8,35.9,89,74,63,29.87,29.83,10,6,12,0.00
2012-10-17,41.2,40.3,39.0,37.9,37.2,36.3,90,88,87,29.88,29.86,9,6,9,0.00
2012-10-21,55.7,51.3,46.9,46.6,44.2,42.4,91,77,63,30.02,29.91,17,11,19,0.00
2012-10-22,64.6,54.1,43.2,47.7,44.4,41.3,95,72,48,30.09,30.00,10,4,11,0.00
2012-10-23,56.4,52.9,51.0,53.4,50.0,43.0,98,91,61,30.02,29.94,6,1,9,0.00
2012-10-24,62.1,56.2,50.3,61.2,55.4,49.8,99,97,93,30.05,30.00,6,1,9,0.00
2012-10-25,77.8,66.9,59.4,59.8,57.5,55.8,97,73,51,30.04,29.92,12,7,16,0.00
2012-10-26,73.1,60.3,47.0,58.6,54.1,45.1,93,81,58,30.07,29.92,13,8,18,0.00
2012-10-27,50.1,46.8,43.4,49.6,46.0,42.6,98,97,94,30.06,29.88,7,3,10,0.00
2012-10-28,43.2,42.0,41.2,42.4,41.2,40.4,98,97,96,30.01,29.84,9,6,11,0.00
2012-10-29,45.5,43.5,42.0,44.7,42.9,41.5,99,98,97,29.83,29.17,26,12,26,0.00
2012-10-30,53.4,48.1,40.6,52.5,45.0,37.9,98,89,80,29.33,28.98,18,8,26,0.00
2012-10-31,41.8,40.2,38.7,40.1,37.5,35.5,96,90,82,29.42,29.33,8,4,9,0.00
2012-11-1,43.2,42.1,40.4,42.1,39.9,37.1,97,92,88,29.58,29.40,16,9,19,0.00
2012-11-2,40.6,37.3,34.9,37.3,34.1,32.3,92,88,82,29.85,29.58,9,6,13,0.00
2012-11-3,37.9,35.8,33.9,33.5,32.1,30.2,93,86,77,30.05,29.85,13,7,13,0.00
2012-11-4,34.6,33.0,31.9,31.3,29.0,26.1,93,85,79,30.09,30.04,7,4,9,0.01
2012-11-5,34.0,32.3,30.7,30.2,27.7,21.9,93,83,69,30.17,30.04,8,4,9,0.02
2012-11-6,38.0,32.5,27.6,25.4,23.5,21.8,79,70,57,30.17,30.03,5,2,9,0.02
2012-11-7,37.2,32.5,28.2,29.2,25.8,23.4,85,76,59,30.07,30.01,6,2,9,0.04
2012-11-8,41.7,34.0,28.9,29.7,26.7,24.1,88,75,55,30.11,30.03,10,5,15,0.02
2012-11-9,45.3,39.6,33.4,39.7,35.2,28.9,89,84,77,30.17,30.07,8,4,10,0.02
2012-11-10,51.2,45.8,40.9,45.4,41.5,37.6,90,85,76,30.24,30.15,10,3,11,0.00
2012-11-11,68.9,58.9,51.7,45.1,42.0,39.7,73,54,39,30.23,30.12,14,9,19,0.00
2012-11-12,66.1,56.5,40.3,51.8,45.4,36.1,91,67,54,30.11,29.84,19,13,31,0.00
2012-11-13,37.9,34.5,33.1,34.6,28.8,24.1,90,80,68,30.50,30.10,17,5,17,0.00
2012-11-14,37.1,34.5,31.5,30.4,26.7,22.8,80,73,65,30.57,30.45,5,2,9,0.06
2012-11-15,44.8,31.6,30.5,30.6,14.7,-99.9,86,68,53,30.44,30.29,5,-105,9,0.02
2012-11-16,44.5,37.7,32.9,35.0,32.0,28.3,92,80,69,30.48,30.29,6,1,9,0.05
2012-11-17,47.7,40.2,34.8,36.2,33.5,30.7,92,78,61,30.61,30.47,6,2,9,0.02
2012-11-18,48.3,40.2,34.3,35.6,33.0,29.9,86,76,60,30.59,30.45,8,2,9,0.00
2012-11-19,48.3,40.1,33.8,37.7,33.9,30.1,90,79,61,30.45,30.20,9,4,11,0.00
2012-11-20,47.0,42.2,35.2,37.3,35.2,31.9,88,76,64,30.19,30.07,6,2,9,0.00
2012-11-21,53.9,44.2,37.0,38.2,33.5,27.8,88,68,37,30.20,30.11,10,2,10,0.00
2012-11-22,59.1,48.5,38.3,39.8,32.7,26.7,65,55,45,30.16,29.92,11,7,13,0.00
2012-11-23,49.7,43.6,31.2,44.5,35.2,29.4,94,73,59,29.92,29.60,22,12,36,0.00
2012-11-24,33.2,31.2,29.0,27.9,24.0,20.5,83,74,64,29.90,29.68,18,10,21,0.00
2012-11-25,32.2,29.8,27.9,28.9,24.6,18.7,92,81,64,29.90,29.78,10,7,12,0.00
2012-11-26,34.1,32.7,30.5,28.4,26.8,22.5,85,79,70,30.20,29.85,13,6,15,0.00
2012-11-27,33.4,31.4,29.8,25.9,23.1,21.0,80,71,60,30.27,30.19,5,2,9,0.00
2012-11-28,32.9,31.5,30.3,28.9,24.6,21.6,91,75,65,30.22,30.13,15,8,16,0.00
2012-11-29,42.9,35.3,28.5,30.9,24.9,20.2,87,67,43,30.24,30.17,18,8,26,0.00
2012-11-30,36.5,27.5,24.0,30.9,24.9,22.8,95,90,62,30.36,30.24,6,4,9,0.00
2012-12-1,47.0,36.7,23.3,38.4,31.6,22.1,96,83,70,30.34,30.18,14,6,16,0.04
2012-12-2,52.5,47.7,42.9,50.7,44.0,37.4,96,87,77,30.17,29.89,17,12,20,0.20
2012-12-3,54.6,48.9,43.2,52.6,46.1,40.9,94,90,83,30.17,30.03,9,2,9,0.00
2012-12-4,66.3,57.0,44.3,55.4,51.9,41.6,94,84,63,30.03,29.80,16,10,17,0.37
2012-12-5,44.1,34.1,27.2,40.5,28.5,20.6,88,80,68,30.33,29.89,14,7,16,0.00
2012-12-6,39.3,31.8,23.8,26.6,21.4,18.6,83,67,44,30.36,30.03,14,4,14,0.00
2012-12-7,39.8,38.0,35.0,38.8,33.7,23.4,96,85,60,30.02,29.90,12,5,13,0.10
2012-12-8,49.1,42.3,35.1,47.7,41.0,32.5,97,95,90,30.08,29.72,11,4,12,0.11
2012-12-9,43.2,34.6,30.1,41.3,31.9,28.4,95,90,83,30.22,29.77,13,5,15,0.13
2012-12-10,51.3,42.6,33.6,49.9,40.9,32.1,96,94,91,29.73,29.49,15,9,20,0.37
2012-12-11,33.7,31.4,29.5,32.2,27.7,25.5,94,86,76,30.13,29.66,12,5,13,0.01
2012-12-12,38.0,33.0,30.2,28.2,26.4,24.8,85,77,65,30.39,30.14,12,6,15,0.00
2012-12-13,41.2,33.4,26.7,27.8,24.9,22.8,85,72,51,30.42,30.19,9,6,10,0.00
2012-12-14,40.3,36.5,30.9,34.6,29.3,21.1,92,76,54,30.23,30.13,12,5,13,0.00
2012-12-15,39.4,35.2,30.8,35.2,32.4,29.8,97,90,77,30.25,29.95,5,2,9,0.00
2012-12-16,48.8,43.6,39.8,42.4,38.6,32.8,94,82,75,29.94,29.68,21,11,24,0.05
2012-12-17,49.4,45.4,43.7,46.4,43.7,42.2,97,94,89,29.69,29.49,14,6,17,0.15
2012-12-18,43.5,40.3,36.7,41.9,38.3,33.2,96,93,86,29.68,29.41,8,5,11,0.20
2012-12-19,38.9,35.7,31.2,32.8,31.0,28.9,92,83,71,30.15,29.69,10,4,13,0.00
2012-12-20,39.3,34.7,30.3,36.4,29.8,25.9,92,82,69,30.14,29.43,17,7,25,0.07
2012-12-21,38.3,33.7,29.1,36.2,31.7,28.1,97,92,84,29.42,29.16,13,7,16,0.22
2012-12-22,30.8,28.3,25.7,26.9,24.7,23.2,96,86,73,29.90,29.34,18,12,26,0.00
2012-12-23,32.6,30.3,27.9,27.4,25.4,22.8,90,82,73,29.97,29.77,15,9,20,0.00
2012-12-24,30.3,28.1,25.6,26.3,22.7,20.0,90,80,77,30.03,29.83,6,3,9,0.00
2012-12-25,30.6,28.5,26.4,29.1,26.0,23.7,95,90,78,30.29,29.85,6,3,9,0.02
2012-12-26,26.4,22.1,18.8,23.8,19.7,16.9,95,90,85,30.29,29.74,12,6,13,0.00
2012-12-27,26.4,24.1,22.2,25.4,22.8,20.5,96,95,93,30.01,29.68,11,7,13,0.00
2012-12-28,27.5,25.2,22.8,25.3,23.5,21.1,95,93,91,30.11,30.01,12,4,14,0.00
2012-12-29,27.2,25.2,23.3,26.0,23.9,21.8,96,95,92,29.98,29.63,10,2,12,0.00
2012-12-30,26.9,23.6,20.8,23.5,19.5,17.6,92,84,73,30.23,29.81,14,6,15,0.00
2012-12-31,32.6,28.2,23.4,29.6,23.3,19.6,91,82,70,30.17,29.83,22,13,29,0.00
2013-1-1,33.0,23.1,10.9,29.0,18.5,6.5,88,82,76,30.00,29.82,10,4,11,0.00